Time;durP1;ratioP1;P1;durP2;ratioP2;P2;SDS_P1;SDS_P2;PMS_P1;PMS_P2;Temp;Humidity;BMP_temperature;BMP_pressure;BME280_temperature;BME280_humidity;BME280_pressure;Samples;Min_cycle;Max_cycle;Signal;HPM_P1;HPM_P2
2022/01/24 00:01:49;;;;;;;15.63;13.82;;;7.40;99.90;;;;;;5008140;28;20418;-83
2022/01/24 00:04:14;;;;;;;14.77;13.18;;;7.40;99.90;;;;;;5006725;28;20817;-83
2022/01/24 00:06:41;;;;;;;15.90;13.73;;;7.40;99.90;;;;;;4989067;28;20419;-83
2022/01/24 00:09:07;;;;;;;15.90;13.57;;;7.40;99.90;;;;;;5007111;28;20401;-82
2022/01/24 00:27:23;;;;;;;26.08;16.23;;;7.40;99.90;;;;;;5007838;28;20899;-83
2022/01/24 00:29:49;;;;;;;20.77;15.47;;;7.40;99.90;;;;;;5006872;28;20416;-82
2022/01/24 00:32:15;;;;;;;18.48;14.38;;;7.40;99.90;;;;;;4989532;28;20396;-83
2022/01/24 00:34:40;;;;;;;21.00;15.07;;;7.40;99.90;;;;;;5003125;28;20850;-82
2022/01/24 00:37:06;;;;;;;19.25;14.85;;;7.40;99.90;;;;;;4988711;28;20854;-82
2022/01/24 00:39:32;;;;;;;20.40;14.93;;;7.40;99.90;;;;;;5005788;28;20395;-83
2022/01/24 00:44:45;;;;;;;28.00;17.15;;;7.40;99.90;;;;;;5006478;28;20468;-83
2022/01/24 00:47:44;;;;;;;22.50;17.35;;;7.30;99.90;;;;;;4989340;28;20394;-82
2022/01/24 00:55:19;;;;;;;25.67;18.30;;;7.40;99.90;;;;;;5007259;28;20507;-83
2022/01/24 00:57:44;;;;;;;29.67;19.05;;;7.30;99.90;;;;;;5007113;28;20466;-82
2022/01/24 01:00:11;;;;;;;28.02;20.02;;;7.20;99.90;;;;;;4988284;28;20407;-82
2022/01/24 01:02:36;;;;;;;28.42;20.05;;;7.20;99.90;;;;;;5006866;28;20455;-83
2022/01/24 01:18:16;;;;;;;30.40;20.80;;;7.20;99.90;;;;;;5007510;28;20410;-82
2022/01/24 01:23:28;;;;;;;29.73;20.77;;;7.30;99.90;;;;;;5007256;28;20423;-82
2022/01/24 01:25:54;;;;;;;29.95;20.80;;;7.30;99.90;;;;;;4988032;28;20427;-83
2022/01/24 01:28:21;;;;;;;30.38;20.52;;;7.30;99.90;;;;;;4988733;28;20419;-82
2022/01/24 01:30:50;;;;;;;34.47;21.90;;;7.30;99.90;;;;;;4988768;28;20407;-82
2022/01/24 01:36:08;;;;;;;32.30;22.08;;;7.30;99.90;;;;;;5006930;28;20718;-82
2022/01/24 01:54:55;;;;;;;29.33;20.77;;;7.20;99.90;;;;;;5005659;28;20806;-82
2022/01/24 01:57:22;;;;;;;22.00;18.60;;;7.30;99.90;;;;;;4988494;28;20422;-82
2022/01/24 01:59:48;;;;;;;25.63;19.47;;;7.30;99.90;;;;;;5005373;28;20374;-82
2022/01/24 02:02:14;;;;;;;22.00;18.33;;;7.30;99.90;;;;;;4988574;28;20395;-82
2022/01/24 02:04:41;;;;;;;25.23;19.15;;;7.30;99.90;;;;;;5006193;28;20391;-82
2022/01/24 02:07:11;;;;;;;29.20;20.63;;;7.30;99.90;;;;;;5005999;28;20436;-83
2022/01/24 02:09:40;;;;;;;25.08;19.40;;;7.30;99.90;;;;;;5004804;28;20419;-82
2022/01/24 02:12:06;;;;;;;24.17;18.25;;;7.30;99.90;;;;;;4988164;28;20440;-83
2022/01/24 02:14:36;;;;;;;24.80;19.52;;;7.30;99.90;;;;;;4988225;28;20979;-82
2022/01/24 02:17:08;;;;;;;23.15;18.83;;;7.30;99.90;;;;;;4988140;28;20396;-82
2022/01/24 02:24:40;;;;;;;27.02;20.08;;;7.20;99.90;;;;;;5005592;28;20757;-82
2022/01/24 02:27:06;;;;;;;32.05;20.67;;;7.20;99.90;;;;;;5004858;28;20423;-82
2022/01/24 02:29:54;;;;;;;28.50;20.80;;;7.10;99.90;;;;;;4987448;28;20412;-82
2022/01/24 02:32:20;;;;;;;25.98;20.42;;;7.10;99.90;;;;;;4987151;28;20749;-82
2022/01/24 02:34:48;;;;;;;29.98;21.58;;;7.00;99.90;;;;;;5005780;28;20445;-83
2022/01/24 02:37:17;;;;;;;27.85;22.05;;;7.00;99.90;;;;;;4987313;28;20392;-82
2022/01/24 02:48:26;;;;;;;31.70;22.42;;;6.90;99.90;;;;;;4986976;28;20404;-82
2022/01/24 02:53:41;;;;;;;29.27;21.77;;;6.80;99.90;;;;;;5005499;28;20410;-82
2022/01/24 02:56:07;;;;;;;28.23;22.27;;;6.80;99.90;;;;;;5005618;28;20388;-82
2022/01/24 02:58:33;;;;;;;33.83;23.07;;;6.80;99.90;;;;;;5005310;28;20884;-82
2022/01/24 03:00:59;;;;;;;27.83;20.15;;;6.80;99.90;;;;;;5004368;28;20461;-83
2022/01/24 03:03:25;;;;;;;26.55;20.08;;;6.80;99.90;;;;;;4987825;28;20400;-83
2022/01/24 03:05:51;;;;;;;27.08;21.15;;;6.80;99.90;;;;;;5005051;28;20392;-82
2022/01/24 03:08:16;;;;;;;35.15;23.20;;;6.80;99.90;;;;;;4990963;28;20722;-82
2022/01/24 03:10:45;;;;;;;33.35;22.92;;;6.80;99.90;;;;;;4990036;28;20757;-83
2022/01/24 03:15:56;;;;;;;30.88;22.23;;;6.80;99.90;;;;;;5008591;28;20391;-82
2022/01/24 03:18:22;;;;;;;27.60;20.67;;;6.80;99.90;;;;;;4991187;28;20369;-83
2022/01/24 03:20:49;;;;;;;37.20;23.58;;;6.80;99.90;;;;;;5007532;28;20395;-82
2022/01/24 03:23:17;;;;;;;30.75;22.15;;;6.70;99.90;;;;;;5008521;28;20805;-82
2022/01/24 03:25:43;;;;;;;25.75;20.52;;;6.70;99.90;;;;;;4990609;28;20788;-83
2022/01/24 03:28:10;;;;;;;33.43;24.13;;;6.70;99.90;;;;;;4992546;28;20387;-83
2022/01/24 03:30:37;;;;;;;32.17;22.23;;;6.70;99.90;;;;;;5007552;28;20403;-82
2022/01/24 03:33:03;;;;;;;32.83;22.42;;;6.70;99.90;;;;;;5007492;28;20406;-82
2022/01/24 03:35:29;;;;;;;32.65;22.80;;;6.60;99.90;;;;;;5008174;28;20395;-82
2022/01/24 03:37:55;;;;;;;31.42;21.85;;;6.70;99.90;;;;;;4990135;28;20403;-83
2022/01/24 03:40:21;;;;;;;31.27;22.58;;;6.80;99.90;;;;;;5007956;28;20792;-82
2022/01/24 03:42:46;;;;;;;33.72;23.02;;;6.80;99.90;;;;;;4990640;28;20398;-83
2022/01/24 03:45:12;;;;;;;39.17;25.27;;;6.70;99.90;;;;;;5008041;28;20407;-82
2022/01/24 03:50:30;;;;;;;35.47;23.35;;;6.50;99.90;;;;;;4995682;28;20397;-82
2022/01/24 03:52:56;;;;;;;39.53;24.20;;;6.50;99.90;;;;;;4985976;28;20395;-82
2022/01/24 03:55:21;;;;;;;38.83;24.53;;;6.50;99.90;;;;;;4990802;28;20457;-82
2022/01/24 03:57:47;;;;;;;34.50;24.42;;;6.50;99.90;;;;;;4990392;28;20478;-82
2022/01/24 04:00:13;;;;;;;33.03;23.63;;;6.50;99.90;;;;;;4989841;28;20445;-83
2022/01/24 04:02:40;;;;;;;36.08;24.00;;;6.60;99.90;;;;;;4990187;28;20406;-83
2022/01/24 04:05:06;;;;;;;31.95;22.05;;;6.60;99.90;;;;;;5007501;28;20478;-82
2022/01/24 04:07:32;;;;;;;29.77;21.90;;;6.60;99.90;;;;;;4989606;28;20388;-82
2022/01/24 04:10:04;;;;;;;33.53;23.70;;;6.60;99.90;;;;;;5006686;28;20411;-83
2022/01/24 04:12:29;;;;;;;31.30;24.30;;;6.60;99.90;;;;;;4989593;28;20407;-82
2022/01/24 04:15:08;;;;;;;35.92;25.33;;;6.60;99.90;;;;;;5008146;28;20432;-82
2022/01/24 04:17:46;;;;;;;33.58;25.05;;;6.60;99.90;;;;;;5007168;28;20799;-82
2022/01/24 04:22:59;;;;;;;33.75;24.98;;;6.60;99.90;;;;;;5007155;28;20398;-82
2022/01/24 04:25:25;;;;;;;37.17;24.80;;;6.60;99.90;;;;;;4990010;28;20405;-82
2022/01/24 04:27:54;;;;;;;38.28;25.15;;;6.60;99.90;;;;;;4990040;28;20484;-83
2022/01/24 04:30:21;;;;;;;32.53;23.85;;;6.60;99.90;;;;;;4988980;28;20415;-83
2022/01/24 04:32:46;;;;;;;36.97;25.15;;;6.60;99.90;;;;;;4989792;28;20407;-82
2022/01/24 04:35:12;;;;;;;36.22;25.92;;;6.60;99.90;;;;;;4988990;28;20464;-82
2022/01/24 04:37:38;;;;;;;39.93;25.43;;;6.50;99.90;;;;;;4989651;28;20391;-82
2022/01/24 04:40:04;;;;;;;35.93;25.53;;;6.50;99.90;;;;;;4989055;28;21057;-83
2022/01/24 04:42:43;;;;;;;35.10;25.73;;;6.60;99.90;;;;;;4989713;28;20392;-83
2022/01/24 04:53:15;;;;;;;38.53;27.45;;;6.60;99.90;;;;;;5006992;28;20382;-83
2022/01/24 04:55:40;;;;;;;42.30;27.80;;;6.50;99.90;;;;;;4989431;28;20417;-82
2022/01/24 04:58:06;;;;;;;39.90;29.07;;;6.40;99.90;;;;;;5008584;28;20757;-81
2022/01/24 05:00:32;;;;;;;40.17;28.45;;;6.40;99.90;;;;;;5006999;28;20390;-82
2022/01/24 05:02:57;;;;;;;42.20;28.90;;;6.40;99.90;;;;;;4989621;28;20411;-82
2022/01/24 05:05:26;;;;;;;41.13;28.17;;;6.40;99.90;;;;;;5007085;28;20402;-82
2022/01/24 05:07:52;;;;;;;38.50;27.45;;;6.30;99.90;;;;;;5006554;28;20390;-82
2022/01/24 05:10:30;;;;;;;38.58;27.85;;;6.30;99.90;;;;;;4989045;28;20415;-82
2022/01/24 05:23:39;;;;;;;39.08;26.02;;;6.30;99.90;;;;;;5008345;28;20394;-85
2022/01/24 05:26:07;;;;;;;35.35;25.05;;;6.20;99.90;;;;;;5008185;28;20417;-81
2022/01/24 05:28:34;;;;;;;44.53;27.45;;;6.20;99.90;;;;;;5007595;28;20423;-84
2022/01/24 05:31:01;;;;;;;49.70;27.95;;;6.10;99.90;;;;;;4989703;28;20449;-81
2022/01/24 05:33:28;;;;;;;41.33;25.83;;;6.00;99.90;;;;;;4989819;28;20411;-81
2022/01/24 05:35:54;;;;;;;47.45;27.17;;;6.10;99.90;;;;;;4990205;28;20387;-82
2022/01/24 05:38:22;;;;;;;47.35;28.02;;;6.10;99.90;;;;;;4989609;28;20394;-83
2022/01/24 05:40:49;;;;;;;52.00;28.83;;;6.10;99.90;;;;;;5007758;28;20856;-83
2022/01/24 05:43:16;;;;;;;48.10;27.83;;;6.10;99.90;;;;;;4990149;28;20386;-81
2022/01/24 05:45:42;;;;;;;52.47;28.95;;;6.10;99.90;;;;;;4989591;28;20417;-82
2022/01/24 05:48:08;;;;;;;52.47;29.23;;;6.10;99.90;;;;;;4969659;28;20413;-82
2022/01/24 05:50:35;;;;;;;57.43;29.40;;;6.10;99.90;;;;;;4987633;28;20420;-82
2022/01/24 05:53:02;;;;;;;57.47;30.77;;;6.10;99.90;;;;;;4988427;28;20480;-82
2022/01/24 05:55:27;;;;;;;59.17;32.10;;;6.10;99.90;;;;;;4989157;28;20392;-82
2022/01/24 05:57:53;;;;;;;62.63;31.23;;;6.20;99.90;;;;;;4988910;28;20486;-82
2022/01/24 06:00:19;;;;;;;55.78;30.55;;;6.10;99.90;;;;;;4989856;28;20398;-81
2022/01/24 06:02:45;;;;;;;54.47;27.63;;;6.10;99.90;;;;;;4989657;28;20394;-82
2022/01/24 06:05:11;;;;;;;42.35;24.48;;;6.10;99.90;;;;;;4989444;28;20443;-83
2022/01/24 06:07:38;;;;;;;47.30;25.73;;;6.10;99.90;;;;;;4990241;28;21015;-84
2022/01/24 06:10:05;;;;;;;49.33;27.25;;;6.10;99.90;;;;;;5006798;28;20426;-83
2022/01/24 06:12:31;;;;;;;46.40;26.38;;;6.00;99.90;;;;;;4989357;28;20384;-84
2022/01/24 06:14:56;;;;;;;48.67;26.43;;;6.00;99.90;;;;;;4989709;28;20400;-84
2022/01/24 06:17:22;;;;;;;46.13;24.98;;;6.10;99.90;;;;;;4989453;28;20391;-82
2022/01/24 06:19:47;;;;;;;34.25;21.75;;;6.20;99.90;;;;;;4989036;28;20421;-82
2022/01/24 06:22:13;;;;;;;33.60;20.97;;;6.10;99.90;;;;;;4989834;28;20388;-81
2022/01/24 06:24:39;;;;;;;35.60;20.27;;;6.10;99.90;;;;;;4992399;28;20398;-81
2022/01/24 06:27:05;;;;;;;27.80;17.57;;;6.00;99.90;;;;;;4991164;28;20391;-82
2022/01/24 06:29:31;;;;;;;28.58;17.50;;;6.10;99.90;;;;;;4989410;28;20934;-83
2022/01/24 06:31:56;;;;;;;28.67;16.83;;;6.10;99.90;;;;;;4988948;28;20422;-82
2022/01/24 06:34:22;;;;;;;24.15;16.73;;;6.10;99.90;;;;;;4988382;28;20407;-82
2022/01/24 06:36:48;;;;;;;27.80;17.15;;;6.20;99.90;;;;;;5006546;28;20436;-83
2022/01/24 06:39:15;;;;;;;29.33;18.02;;;6.20;99.90;;;;;;4987400;28;20465;-82
2022/01/24 06:41:43;;;;;;;26.83;17.67;;;6.10;99.90;;;;;;4987499;28;20406;-82
2022/01/24 06:44:08;;;;;;;29.75;18.45;;;6.10;99.90;;;;;;4990070;28;20403;-82
2022/01/24 06:46:34;;;;;;;27.43;18.33;;;6.00;99.90;;;;;;5007411;28;20386;-82
2022/01/24 06:49:00;;;;;;;27.83;18.33;;;6.00;99.90;;;;;;5007029;28;20445;-82
2022/01/24 06:51:26;;;;;;;28.20;17.87;;;6.00;99.90;;;;;;4991016;28;20414;-82
2022/01/24 06:53:53;;;;;;;25.20;17.23;;;6.00;99.90;;;;;;4990861;28;20511;-83
2022/01/24 06:56:19;;;;;;;26.25;17.77;;;6.10;99.90;;;;;;4991331;28;20889;-82
2022/01/24 06:58:44;;;;;;;26.63;17.92;;;6.10;99.90;;;;;;5009199;28;20376;-82
2022/01/24 07:01:10;;;;;;;27.03;16.77;;;6.00;99.90;;;;;;5008995;28;20876;-83
2022/01/24 07:03:36;;;;;;;30.40;17.87;;;6.00;99.90;;;;;;4991195;28;20391;-83
2022/01/24 07:06:02;;;;;;;23.93;16.03;;;6.00;99.90;;;;;;4991206;28;20968;-83
2022/01/24 07:08:28;;;;;;;25.45;16.65;;;6.00;99.90;;;;;;4990001;28;20426;-83
2022/01/24 07:10:53;;;;;;;21.53;14.90;;;6.00;99.90;;;;;;5007509;28;20423;-83
2022/01/24 07:13:21;;;;;;;21.10;14.73;;;6.00;99.90;;;;;;4974894;28;20430;-82
2022/01/24 07:15:53;;;;;;;21.40;15.15;;;6.00;99.90;;;;;;5008094;28;20391;-81
2022/01/24 07:20:58;;;;;;;22.17;15.43;;;6.00;99.90;;;;;;5008284;28;20412;-82
2022/01/24 07:23:24;;;;;;;20.52;14.30;;;6.00;99.90;;;;;;5008766;28;20440;-83
2022/01/24 07:25:49;;;;;;;22.25;14.93;;;6.00;99.90;;;;;;5008534;28;20367;-83
2022/01/24 07:28:17;;;;;;;19.60;14.82;;;6.00;99.90;;;;;;5008328;28;20380;-83
2022/01/24 07:30:44;;;;;;;20.48;14.38;;;6.00;99.90;;;;;;4991134;28;20387;-84
2022/01/24 07:33:10;;;;;;;21.60;15.05;;;6.00;99.90;;;;;;4990997;28;20801;-82
2022/01/24 07:35:36;;;;;;;26.17;16.23;;;6.00;99.90;;;;;;4990556;28;20486;-83
2022/01/24 07:38:02;;;;;;;23.08;16.10;;;6.00;99.90;;;;;;4990844;28;20474;-83
2022/01/24 07:40:28;;;;;;;24.95;17.58;;;6.00;99.90;;;;;;4990808;28;20384;-82
2022/01/24 07:43:08;;;;;;;25.48;18.13;;;6.00;99.90;;;;;;4991132;28;20391;-83
2022/01/24 07:45:35;;;;;;;26.77;18.75;;;6.00;99.90;;;;;;4990425;28;20483;-83
2022/01/24 07:48:01;;;;;;;27.20;19.27;;;6.10;99.90;;;;;;5007914;28;20423;-83
2022/01/24 07:50:27;;;;;;;27.27;18.70;;;6.20;99.90;;;;;;4990260;28;21030;-83
2022/01/24 07:52:55;;;;;;;25.20;18.70;;;6.20;99.90;;;;;;5008395;28;20437;-82
2022/01/24 07:55:21;;;;;;;24.00;18.05;;;6.20;99.90;;;;;;4990736;28;20955;-83
2022/01/24 07:57:47;;;;;;;26.98;19.33;;;6.30;99.90;;;;;;4990516;28;20421;-82
2022/01/24 08:00:14;;;;;;;27.45;19.63;;;6.40;99.90;;;;;;4989087;28;20498;-82
2022/01/24 08:02:41;;;;;;;26.87;18.17;;;6.50;99.90;;;;;;4988536;28;20915;-83
2022/01/24 08:05:08;;;;;;;25.58;18.08;;;6.60;99.90;;;;;;5007725;28;20403;-83
2022/01/24 08:07:34;;;;;;;22.85;17.08;;;6.60;99.90;;;;;;4990676;28;20956;-83
2022/01/24 08:09:59;;;;;;;28.53;19.10;;;6.80;99.90;;;;;;5006064;28;20416;-82
2022/01/24 08:12:26;;;;;;;24.25;18.27;;;6.70;99.90;;;;;;4990651;28;20426;-83
2022/01/24 08:14:52;;;;;;;29.90;20.08;;;6.80;99.90;;;;;;5005900;28;20940;-83
2022/01/24 08:17:18;;;;;;;28.40;20.30;;;6.80;99.90;;;;;;4990688;28;20392;-82
2022/01/24 08:19:44;;;;;;;33.05;20.65;;;6.90;99.90;;;;;;4989863;28;20399;-83
2022/01/24 08:22:12;;;;;;;31.60;20.52;;;6.80;99.90;;;;;;4989821;28;20391;-83
2022/01/24 08:24:38;;;;;;;29.25;19.80;;;6.80;99.90;;;;;;5007653;28;20374;-83
2022/01/24 08:27:03;;;;;;;31.77;21.73;;;6.80;99.90;;;;;;5007817;28;20383;-83
2022/01/24 08:29:29;;;;;;;31.13;21.65;;;6.80;99.90;;;;;;4989229;28;20455;-82
2022/01/24 08:31:55;;;;;;;31.20;21.52;;;6.80;99.90;;;;;;5007171;28;20455;-82
2022/01/24 08:34:20;;;;;;;28.95;21.08;;;6.90;99.90;;;;;;5006439;28;20738;-82
2022/01/24 08:36:47;;;;;;;28.97;21.17;;;6.90;99.90;;;;;;4990080;28;21166;-82
2022/01/24 08:39:13;;;;;;;30.05;20.88;;;6.90;99.90;;;;;;5007104;28;20553;-83
2022/01/24 08:46:57;;;;;;;32.40;21.83;;;7.00;99.90;;;;;;5006967;28;20388;-82
2022/01/24 08:49:24;;;;;;;26.98;20.42;;;7.10;99.90;;;;;;4989322;28;20403;-83
2022/01/24 08:51:50;;;;;;;29.20;20.63;;;7.00;99.90;;;;;;4989850;28;20831;-82
2022/01/24 08:54:16;;;;;;;28.55;21.58;;;7.10;99.90;;;;;;5007745;28;20476;-83
2022/01/24 08:56:42;;;;;;;28.33;21.15;;;7.10;99.90;;;;;;5007301;28;20380;-83
2022/01/24 08:59:08;;;;;;;26.88;20.20;;;7.10;99.90;;;;;;4990530;28;20740;-82
2022/01/24 09:01:34;;;;;;;27.35;20.80;;;7.20;99.90;;;;;;4991361;28;20745;-81
2022/01/24 09:04:00;;;;;;;26.40;19.88;;;7.20;99.90;;;;;;5007401;28;20382;-83
2022/01/24 09:06:28;;;;;;;27.50;21.50;;;7.20;99.90;;;;;;5007808;28;20395;-84
2022/01/24 09:08:56;;;;;;;29.13;21.27;;;7.40;99.90;;;;;;4992858;28;20403;-83
2022/01/24 09:11:29;;;;;;;27.80;21.73;;;7.40;99.90;;;;;;4990240;28;20404;-84
2022/01/24 09:13:57;;;;;;;30.60;23.05;;;7.40;99.90;;;;;;4973609;28;20414;-83
2022/01/24 09:16:24;;;;;;;28.73;21.75;;;7.40;99.90;;;;;;5007292;28;20390;-82
2022/01/24 09:18:50;;;;;;;33.17;24.65;;;7.40;99.90;;;;;;5007958;28;20430;-83
2022/01/24 09:21:16;;;;;;;31.38;23.83;;;7.40;99.90;;;;;;4989411;28;20411;-82
2022/01/24 09:23:41;;;;;;;31.50;23.65;;;7.30;99.90;;;;;;4988251;28;20398;-82
2022/01/24 09:26:07;;;;;;;33.78;24.98;;;7.40;99.90;;;;;;4987287;28;20388;-83
2022/01/24 09:28:33;;;;;;;38.50;26.93;;;7.40;99.90;;;;;;4987794;28;20399;-83
2022/01/24 09:30:58;;;;;;;35.47;26.27;;;7.50;99.90;;;;;;4987896;28;20778;-83
2022/01/24 09:33:25;;;;;;;33.67;26.17;;;7.60;99.90;;;;;;4988405;28;20371;-83
2022/01/24 09:35:52;;;;;;;36.67;26.38;;;7.60;99.90;;;;;;5002255;28;20917;-84
2022/01/24 09:38:20;;;;;;;36.90;26.30;;;7.60;99.90;;;;;;4988026;28;20414;-83
2022/01/24 09:40:46;;;;;;;34.35;26.42;;;7.60;99.90;;;;;;5006467;28;20876;-83
2022/01/24 09:43:13;;;;;;;34.90;25.88;;;7.60;99.90;;;;;;4989254;28;20386;-82
2022/01/24 09:45:39;;;;;;;33.75;25.40;;;7.50;99.90;;;;;;4988889;28;20376;-83
2022/01/24 09:48:05;;;;;;;32.93;24.73;;;7.60;99.90;;;;;;4988032;28;20392;-82
2022/01/24 09:50:31;;;;;;;34.27;25.77;;;7.60;99.90;;;;;;5006429;28;20411;-83
2022/01/24 09:52:57;;;;;;;34.10;24.67;;;7.60;99.90;;;;;;4989127;28;20915;-83
2022/01/24 09:55:24;;;;;;;31.77;24.02;;;7.70;99.90;;;;;;4989882;28;20382;-83
2022/01/24 09:57:50;;;;;;;35.53;25.60;;;7.50;99.90;;;;;;5008004;28;20469;-83
2022/01/24 10:00:22;;;;;;;34.58;25.27;;;7.40;99.90;;;;;;4989042;28;20387;-83
2022/01/24 10:02:50;;;;;;;34.03;24.88;;;7.40;99.90;;;;;;5006612;28;20375;-83
2022/01/24 10:05:19;;;;;;;33.05;24.63;;;7.40;99.90;;;;;;4984156;28;20949;-83
2022/01/24 10:07:52;;;;;;;34.38;24.83;;;7.40;99.90;;;;;;5006286;28;20910;-82
2022/01/24 10:10:45;;;;;;;33.00;23.75;;;7.40;99.90;;;;;;4990216;28;20413;-83
2022/01/24 10:16:33;;;;;;;32.15;24.30;;;7.30;99.90;;;;;;5008422;28;20455;-82
2022/01/24 10:19:19;;;;;;;32.08;23.83;;;7.40;99.90;;;;;;4983663;28;20793;-83
2022/01/24 10:21:48;;;;;;;28.33;22.40;;;7.40;99.90;;;;;;5009396;28;20437;-83
2022/01/24 10:24:32;;;;;;;29.52;22.65;;;7.50;99.90;;;;;;5009918;28;20884;-83
2022/01/24 10:27:15;;;;;;;31.75;23.52;;;7.50;99.90;;;;;;5010192;28;20371;-83
2022/01/24 10:29:51;;;;;;;27.70;22.08;;;7.70;99.90;;;;;;4992580;28;20434;-83
2022/01/24 10:32:36;;;;;;;27.13;21.70;;;7.80;99.90;;;;;;4990119;28;20420;-83
2022/01/24 10:35:26;;;;;;;27.35;21.40;;;7.80;99.90;;;;;;4993462;28;20395;-83
2022/01/24 10:38:13;;;;;;;25.23;20.55;;;7.80;99.90;;;;;;5009218;28;20434;-83
2022/01/24 10:41:07;;;;;;;23.63;19.30;;;7.90;99.90;;;;;;5010084;28;20440;-83
2022/01/24 10:43:34;;;;;;;23.38;18.90;;;7.80;99.90;;;;;;5009038;28;20391;-83
2022/01/24 10:46:00;;;;;;;23.02;19.10;;;7.80;99.90;;;;;;5010444;28;20418;-83
2022/01/24 10:48:28;;;;;;;23.35;18.83;;;7.80;99.90;;;;;;4992720;28;20415;-83
2022/01/24 10:51:10;;;;;;;22.73;18.27;;;7.80;99.90;;;;;;4992780;28;20379;-82
2022/01/24 10:53:56;;;;;;;21.75;18.15;;;7.70;99.90;;;;;;5009458;28;20895;-83
2022/01/24 10:56:43;;;;;;;20.40;16.90;;;7.70;99.90;;;;;;4992962;28;20474;-83
2022/01/24 10:59:14;;;;;;;20.67;17.03;;;7.50;99.90;;;;;;4993171;28;20387;-83
2022/01/24 11:01:43;;;;;;;20.03;16.63;;;7.50;99.90;;;;;;4995256;28;20466;-83
2022/01/24 11:04:13;;;;;;;22.02;17.27;;;7.30;99.90;;;;;;4994093;28;20390;-82
2022/01/24 11:06:44;;;;;;;19.08;15.80;;;7.20;99.90;;;;;;4996121;28;20418;-83
2022/01/24 11:09:11;;;;;;;18.88;15.38;;;7.20;99.90;;;;;;5010260;28;20403;-83
2022/01/24 11:11:39;;;;;;;18.00;14.85;;;7.20;99.90;;;;;;4992058;28;20888;-82
2022/01/24 11:14:09;;;;;;;16.63;14.60;;;7.30;99.90;;;;;;4979996;28;20385;-83
2022/01/24 11:16:38;;;;;;;16.75;14.57;;;7.30;99.90;;;;;;4993059;28;20390;-83
2022/01/24 11:19:10;;;;;;;17.50;15.07;;;7.20;99.90;;;;;;4995479;28;20387;-83
2022/01/24 11:21:38;;;;;;;18.17;15.93;;;7.10;99.90;;;;;;5012842;28;20395;-83
2022/01/24 11:24:06;;;;;;;19.40;16.52;;;7.00;99.90;;;;;;4992267;28;20392;-83
2022/01/24 11:26:33;;;;;;;19.75;16.73;;;7.00;99.90;;;;;;4991943;28;20474;-83
2022/01/24 11:28:58;;;;;;;20.80;16.95;;;6.90;99.90;;;;;;4991746;28;20995;-83
2022/01/24 11:31:30;;;;;;;18.43;15.97;;;6.90;99.90;;;;;;4991691;28;20402;-83
2022/01/24 11:34:13;;;;;;;19.38;16.33;;;6.90;99.90;;;;;;5009416;28;20394;-83
2022/01/24 11:36:42;;;;;;;18.30;15.50;;;6.80;99.90;;;;;;4990385;28;20430;-83
2022/01/24 11:39:08;;;;;;;17.83;15.60;;;6.80;99.90;;;;;;4992052;28;20402;-83
2022/01/24 11:41:43;;;;;;;18.02;15.35;;;6.80;99.90;;;;;;5010551;28;20390;-83
2022/01/24 11:44:12;;;;;;;18.40;15.65;;;6.80;99.90;;;;;;4993706;28;20399;-83
2022/01/24 11:46:48;;;;;;;19.30;16.35;;;6.80;99.90;;;;;;4992703;28;20459;-83
2022/01/24 11:49:35;;;;;;;19.05;16.52;;;6.60;99.90;;;;;;4991720;28;20450;-83
2022/01/24 11:52:10;;;;;;;17.63;15.75;;;6.60;99.90;;;;;;4993697;28;20525;-83
2022/01/24 11:57:38;;;;;;;17.45;14.90;;;6.60;99.90;;;;;;5010526;28;20737;-83
2022/01/24 12:00:05;;;;;;;18.23;15.82;;;6.70;99.90;;;;;;5009298;28;20383;-83
2022/01/24 12:02:33;;;;;;;18.08;15.50;;;6.70;99.90;;;;;;4991170;28;20916;-83
2022/01/24 12:05:00;;;;;;;20.02;15.90;;;6.80;99.90;;;;;;4991482;28;20391;-83
2022/01/24 12:07:27;;;;;;;17.92;15.63;;;6.80;99.90;;;;;;4995092;28;20742;-84
2022/01/24 12:09:54;;;;;;;17.83;15.93;;;6.70;99.90;;;;;;5008732;28;20399;-82
2022/01/24 12:12:42;;;;;;;17.77;14.93;;;6.60;99.90;;;;;;5008669;28;20398;-82
2022/01/24 12:15:09;;;;;;;18.33;15.75;;;6.60;99.90;;;;;;5008579;28;20383;-83
2022/01/24 12:17:51;;;;;;;18.00;14.98;;;6.60;99.90;;;;;;5008539;28;20889;-83
2022/01/24 12:20:35;;;;;;;17.77;15.83;;;6.60;99.90;;;;;;4990701;28;20474;-83
2022/01/24 12:23:25;;;;;;;19.53;15.93;;;6.60;99.90;;;;;;4990972;28;20375;-83
2022/01/24 12:25:58;;;;;;;18.52;16.50;;;6.60;99.90;;;;;;5008369;28;20403;-83
2022/01/24 12:28:26;;;;;;;18.40;16.38;;;6.70;99.90;;;;;;4990392;28;20391;-83
2022/01/24 12:31:03;;;;;;;16.83;14.98;;;6.70;99.90;;;;;;4990957;28;20483;-83
2022/01/24 12:33:43;;;;;;;18.45;15.57;;;6.80;99.90;;;;;;4991348;28;20384;-83
2022/01/24 12:36:12;;;;;;;22.13;16.15;;;6.80;99.90;;;;;;5005478;28;20444;-83
2022/01/24 12:38:46;;;;;;;17.35;15.43;;;6.70;99.90;;;;;;4990053;28;20495;-83
2022/01/24 12:41:28;;;;;;;17.67;15.77;;;6.70;99.90;;;;;;5007547;28;20371;-83
2022/01/24 12:44:10;;;;;;;18.03;16.03;;;6.80;99.90;;;;;;4991275;28;20877;-82
2022/01/24 12:46:36;;;;;;;18.45;16.00;;;6.70;99.90;;;;;;4990217;28;20482;-83
2022/01/24 12:49:05;;;;;;;17.98;16.05;;;6.70;99.90;;;;;;5007524;28;20491;-83
2022/01/24 12:51:33;;;;;;;19.38;16.27;;;6.80;99.90;;;;;;4989925;28;20448;-82
2022/01/24 12:54:02;;;;;;;20.40;15.87;;;6.70;99.90;;;;;;4990060;28;20494;-83
2022/01/24 12:56:30;;;;;;;18.33;16.38;;;6.60;99.90;;;;;;4990190;28;20446;-83
2022/01/24 12:58:56;;;;;;;18.10;15.43;;;6.50;99.90;;;;;;4974147;28;20388;-83
2022/01/24 13:01:30;;;;;;;17.90;15.65;;;6.50;99.90;;;;;;5033498;28;20378;-83
2022/01/24 13:04:06;;;;;;;19.60;15.50;;;6.50;99.90;;;;;;5009179;28;20384;-83
2022/01/24 13:06:35;;;;;;;17.80;15.90;;;6.40;99.90;;;;;;5027139;28;20452;-83
2022/01/24 13:09:03;;;;;;;17.95;15.88;;;6.40;99.90;;;;;;5007464;28;20417;-83
2022/01/24 13:11:30;;;;;;;22.98;16.08;;;6.50;99.90;;;;;;4991247;28;20391;-82
2022/01/24 13:14:12;;;;;;;19.67;16.83;;;6.50;99.90;;;;;;4988186;28;20388;-82
2022/01/24 13:25:22;;;;;;;20.92;17.48;;;6.40;99.90;;;;;;5005624;28;20417;-83
2022/01/24 13:27:50;;;;;;;22.33;17.30;;;6.50;99.90;;;;;;4985191;28;20414;-83
2022/01/24 13:30:24;;;;;;;21.20;16.73;;;6.40;99.90;;;;;;5004942;28;20753;-83
2022/01/24 13:32:53;;;;;;;22.40;17.55;;;6.40;99.90;;;;;;4987371;28;20423;-83
2022/01/24 13:35:40;;;;;;;21.30;17.67;;;6.50;99.90;;;;;;5004562;28;20395;-83
2022/01/24 13:38:43;;;;;;;23.13;17.60;;;6.50;99.90;;;;;;5004648;28;20406;-82
2022/01/24 13:41:21;;;;;;;22.60;17.67;;;6.50;99.90;;;;;;4944638;28;20392;-83
2022/01/24 13:44:04;;;;;;;22.73;17.73;;;6.40;99.90;;;;;;5005888;28;20436;-83
2022/01/24 13:46:40;;;;;;;23.80;17.80;;;6.50;99.90;;;;;;5000862;28;20387;-82
2022/01/24 13:49:08;;;;;;;24.88;18.77;;;6.40;99.90;;;;;;5006044;28;20460;-83
2022/01/24 13:51:45;;;;;;;25.10;18.27;;;6.50;99.90;;;;;;4987252;28;20460;-83
2022/01/24 13:54:17;;;;;;;24.40;18.58;;;6.30;99.90;;;;;;4988033;28;20410;-83
2022/01/24 13:56:45;;;;;;;24.45;19.10;;;6.30;99.90;;;;;;4988314;28;21148;-83
2022/01/24 13:59:25;;;;;;;24.10;18.45;;;6.30;99.90;;;;;;5007212;28;20387;-84
2022/01/24 14:02:12;;;;;;;26.67;19.23;;;6.30;99.90;;;;;;4987363;28;20404;-83
2022/01/24 14:04:52;;;;;;;26.45;19.63;;;6.30;99.90;;;;;;5005412;28;20474;-83
2022/01/24 14:07:22;;;;;;;27.60;19.95;;;6.20;99.90;;;;;;5004045;28;20444;-83
2022/01/24 14:09:50;;;;;;;27.50;19.80;;;6.20;99.90;;;;;;4987088;28;20424;-83
2022/01/24 14:12:20;;;;;;;26.98;19.73;;;6.30;99.90;;;;;;5003026;28;20448;-84
2022/01/24 14:14:58;;;;;;;26.00;19.38;;;6.30;99.90;;;;;;5005855;28;20429;-83
2022/01/24 14:19:58;;;;;;;26.45;20.02;;;6.30;99.90;;;;;;5006368;28;20873;-82
2022/01/24 14:22:55;;;;;;;28.58;20.65;;;6.10;99.90;;;;;;4987752;28;20409;-83
2022/01/24 14:25:25;;;;;;;25.80;19.58;;;6.10;99.90;;;;;;4985571;28;20391;-83
2022/01/24 14:27:53;;;;;;;29.05;21.17;;;6.10;99.90;;;;;;4988371;28;20738;-83
2022/01/24 14:30:41;;;;;;;28.73;20.23;;;6.10;99.90;;;;;;5005580;28;20450;-83
2022/01/24 14:33:11;;;;;;;29.25;20.88;;;6.10;99.90;;;;;;4990372;28;20418;-83
2022/01/24 14:35:43;;;;;;;29.30;20.08;;;6.10;99.90;;;;;;4989858;28;20498;-82
2022/01/24 14:38:09;;;;;;;27.30;19.60;;;6.00;99.90;;;;;;4987973;28;20394;-82
2022/01/24 14:40:46;;;;;;;27.77;20.10;;;6.00;99.90;;;;;;5006290;28;20379;-83
2022/01/24 14:46:06;;;;;;;26.57;19.97;;;6.10;99.90;;;;;;5004892;28;20383;-82
2022/01/24 14:48:40;;;;;;;28.17;20.40;;;6.10;99.90;;;;;;4985151;28;20490;-83
2022/01/24 14:51:05;;;;;;;27.40;20.20;;;6.00;99.90;;;;;;4987441;28;20458;-82
2022/01/24 14:53:34;;;;;;;24.00;19.37;;;6.00;99.90;;;;;;5005595;28;20494;-83
2022/01/24 14:56:00;;;;;;;28.23;20.45;;;6.10;99.90;;;;;;5005341;28;20376;-82
2022/01/24 14:58:26;;;;;;;27.27;20.25;;;6.00;99.90;;;;;;4987869;28;20390;-83